Azul Frontier — HPES — position and weather

sailwx.info

Track history (hours):
 
Tides and Currents Weather Stations Pressure Air Temp Water Temp Dewpoint Dewpoint Depression Visibility Wind Speed Wind Dir Waves Ship Positions

Azul Frontier

Last reported at 2017-Dec-03 23:59 UTC. Time now 2017-Dec-11 09:43 UTC.
Position N 36°27' E 022°57'.

Length 106 m; draft 6 m.

Type: Cargo ship. MMSI: 374159000.

Date/timePositionNaut miles runAvg speedWind from/ knotsBaromVisibWave heightAir tempDewpointWater temp
2017-Dec-03 23:59N 36°27' E 022°57'58 9.0
2017-Dec-03 17:34N 37°09' E 023°47'111.3
2017-Dec-03 17:30N 37°10' E 023°48'711.3
2017-Dec-03 16:51N 37°16' E 023°52'711.1
2017-Dec-03 16:12N 37°22' E 023°57'211.1
2017-Dec-03 16:00N 37°24' E 023°59'611.1
2017-Dec-03 15:30N 37°29' E 024°02'510.7
2017-Dec-03 15:00N 37°33' E 024°06'510.6
2017-Dec-03 14:30N 37°38' E 024°10'810.6
2017-Dec-03 13:43N 37°43' E 024°18'210.8
2017-Dec-03 13:30N 37°44' E 024°20'611.4
2017-Dec-03 13:00N 37°48' E 024°26'510.5
2017-Dec-03 12:30N 37°52' E 024°30'510.1
2017-Dec-03 11:59N 37°55' E 024°35'  
2017-Nov-29 20:43N 46°18' E 030°55'312.2
2017-Nov-29 20:29N 46°21' E 030°55'612.1
2017-Nov-29 20:00N 46°27' E 030°55'27 9.2
2017-Nov-29 17:07N 46°34' E 031°33'111.5
2017-Nov-29 16:59N 46°35' E 031°35'611.4
2017-Nov-29 16:30N 46°36' E 031°43'510.8
2017-Nov-29 16:00N 46°35' E 031°50'510.3
2017-Nov-29 15:30N 46°33' E 031°57'510.3
2017-Nov-29 15:00N 46°32' E 032°05'610.4
2017-Nov-29 14:28N 46°33' E 032°12'  
Track history (hours):
 
Tides and Currents Weather Stations Pressure Air Temp Water Temp Dewpoint Dewpoint Depression Visibility Wind Speed Wind Dir Waves Ship Positions

Azul Frontier

Last reported at 2017-Dec-03 23:59 UTC. Time now 2017-Dec-11 09:43 UTC.
Position N 36°27' E 022°57'.

Length 106 m; draft 6 m.

Type: Cargo ship. MMSI: 374159000.

Date/timePositionNaut miles runAvg speedWind from/ knotsBaromVisibWave heightAir tempDewpointWater temp
2017-Dec-03 23:59N 36°27' E 022°57'58 9.0
2017-Dec-03 17:34N 37°09' E 023°47'111.3
2017-Dec-03 17:30N 37°10' E 023°48'711.3
2017-Dec-03 16:51N 37°16' E 023°52'711.1
2017-Dec-03 16:12N 37°22' E 023°57'211.1
2017-Dec-03 16:00N 37°24' E 023°59'611.1
2017-Dec-03 15:30N 37°29' E 024°02'510.7
2017-Dec-03 15:00N 37°33' E 024°06'510.6
2017-Dec-03 14:30N 37°38' E 024°10'810.6
2017-Dec-03 13:43N 37°43' E 024°18'210.8
2017-Dec-03 13:30N 37°44' E 024°20'611.4
2017-Dec-03 13:00N 37°48' E 024°26'510.5
2017-Dec-03 12:30N 37°52' E 024°30'510.1
2017-Dec-03 11:59N 37°55' E 024°35'  
2017-Nov-29 20:43N 46°18' E 030°55'312.2
2017-Nov-29 20:29N 46°21' E 030°55'612.1
2017-Nov-29 20:00N 46°27' E 030°55'27 9.2
2017-Nov-29 17:07N 46°34' E 031°33'111.5
2017-Nov-29 16:59N 46°35' E 031°35'611.4
2017-Nov-29 16:30N 46°36' E 031°43'510.8
2017-Nov-29 16:00N 46°35' E 031°50'510.3
2017-Nov-29 15:30N 46°33' E 031°57'510.3
2017-Nov-29 15:00N 46°32' E 032°05'610.4
2017-Nov-29 14:28N 46°33' E 032°12'  

Dump ship's entire track history